Terminal Aerodrome Forecast
Issued by NWS Lubbock, TX

Home | Current Version | Previous Version | Text Only | Print | Product List | Glossary On
Versions: 1 2 3 4 5 6 7 8 9 10 11 12 13 14
000
FTUS44 KLUB 292300
TAFLBB
TAF
KLBB 292320Z 3000/3024 10009KT P6SM SCT050 OVC100
     FM301000 15009KT P6SM SCT010 SCT050 OVC100
     FM301500 20014KT P6SM SCT050 SCT100=

USA.gov is the U.S. government's official web portal to all federal, state and local government web resources and services.